sensor_id;sensor_type;location;lat;lon;timestamp;P1;durP1;ratioP1;P2;durP2;ratioP2
6549;SDS011;15142;48.888;9.134;2022-07-23T00:02:02;5.77;;;5.10;;
6549;SDS011;15142;48.888;9.134;2022-07-23T00:04:34;6.37;;;3.70;;
6549;SDS011;15142;48.888;9.134;2022-07-23T00:07:03;4.40;;;4.00;;
6549;SDS011;15142;48.888;9.134;2022-07-23T00:09:31;5.50;;;5.00;;
6549;SDS011;15142;48.888;9.134;2022-07-23T00:12:00;4.93;;;4.17;;
6549;SDS011;15142;48.888;9.134;2022-07-23T00:14:28;4.70;;;4.10;;
6549;SDS011;15142;48.888;9.134;2022-07-23T00:16:57;6.30;;;3.80;;
6549;SDS011;15142;48.888;9.134;2022-07-23T00:27:24;3.30;;;3.10;;
6549;SDS011;15142;48.888;9.134;2022-07-23T00:32:20;4.60;;;3.43;;
6549;SDS011;15142;48.888;9.134;2022-07-23T00:44:54;6.00;;;3.50;;
6549;SDS011;15142;48.888;9.134;2022-07-23T00:47:24;4.50;;;4.10;;
6549;SDS011;15142;48.888;9.134;2022-07-23T00:49:52;4.20;;;3.90;;
6549;SDS011;15142;48.888;9.134;2022-07-23T00:52:21;5.17;;;3.47;;
6549;SDS011;15142;48.888;9.134;2022-07-23T00:54:49;3.80;;;3.50;;
6549;SDS011;15142;48.888;9.134;2022-07-23T00:57:18;6.90;;;3.60;;
6549;SDS011;15142;48.888;9.134;2022-07-23T01:02:20;4.67;;;4.27;;
6549;SDS011;15142;48.888;9.134;2022-07-23T01:07:20;3.80;;;3.50;;
6549;SDS011;15142;48.888;9.134;2022-07-23T01:09:49;3.43;;;3.10;;
6549;SDS011;15142;48.888;9.134;2022-07-23T01:12:19;5.57;;;4.73;;
6549;SDS011;15142;48.888;9.134;2022-07-23T01:17:13;3.60;;;3.30;;
6549;SDS011;15142;48.888;9.134;2022-07-23T01:19:44;5.27;;;3.40;;
6549;SDS011;15142;48.888;9.134;2022-07-23T01:22:14;3.60;;;3.30;;
6549;SDS011;15142;48.888;9.134;2022-07-23T01:27:14;4.93;;;4.43;;
6549;SDS011;15142;48.888;9.134;2022-07-23T01:29:43;4.40;;;4.00;;
6549;SDS011;15142;48.888;9.134;2022-07-23T01:32:12;6.30;;;5.70;;
6549;SDS011;15142;48.888;9.134;2022-07-23T01:34:40;4.97;;;4.07;;
6549;SDS011;15142;48.888;9.134;2022-07-23T01:37:09;5.07;;;4.60;;
6549;SDS011;15142;48.888;9.134;2022-07-23T01:39:38;8.63;;;3.53;;
6549;SDS011;15142;48.888;9.134;2022-07-23T01:42:07;6.67;;;4.30;;
6549;SDS011;15142;48.888;9.134;2022-07-23T01:44:38;5.23;;;4.60;;
6549;SDS011;15142;48.888;9.134;2022-07-23T01:52:35;5.27;;;4.00;;
6549;SDS011;15142;48.888;9.134;2022-07-23T01:55:04;5.10;;;4.60;;
6549;SDS011;15142;48.888;9.134;2022-07-23T01:57:35;4.60;;;4.00;;
6549;SDS011;15142;48.888;9.134;2022-07-23T02:00:08;5.20;;;4.13;;
6549;SDS011;15142;48.888;9.134;2022-07-23T02:02:45;4.03;;;3.73;;
6549;SDS011;15142;48.888;9.134;2022-07-23T02:05:14;5.03;;;4.50;;
6549;SDS011;15142;48.888;9.134;2022-07-23T02:07:44;4.93;;;4.53;;
6549;SDS011;15142;48.888;9.134;2022-07-23T02:10:14;4.20;;;3.90;;
6549;SDS011;15142;48.888;9.134;2022-07-23T02:12:42;5.43;;;4.93;;
6549;SDS011;15142;48.888;9.134;2022-07-23T02:15:14;4.93;;;3.90;;
6549;SDS011;15142;48.888;9.134;2022-07-23T02:17:42;10.90;;;4.40;;
6549;SDS011;15142;48.888;9.134;2022-07-23T02:20:11;4.83;;;4.43;;
6549;SDS011;15142;48.888;9.134;2022-07-23T02:22:42;5.87;;;3.70;;
6549;SDS011;15142;48.888;9.134;2022-07-23T02:25:11;5.63;;;5.10;;
6549;SDS011;15142;48.888;9.134;2022-07-23T02:27:39;8.53;;;5.00;;
6549;SDS011;15142;48.888;9.134;2022-07-23T02:30:08;5.17;;;4.07;;
6549;SDS011;15142;48.888;9.134;2022-07-23T02:32:40;5.63;;;5.00;;
6549;SDS011;15142;48.888;9.134;2022-07-23T02:35:10;5.10;;;4.60;;
6549;SDS011;15142;48.888;9.134;2022-07-23T02:37:38;7.07;;;4.70;;
6549;SDS011;15142;48.888;9.134;2022-07-23T02:40:07;6.73;;;4.00;;
6549;SDS011;15142;48.888;9.134;2022-07-23T02:42:39;7.73;;;4.50;;
6549;SDS011;15142;48.888;9.134;2022-07-23T02:45:09;5.60;;;4.77;;
6549;SDS011;15142;48.888;9.134;2022-07-23T02:47:41;5.70;;;4.83;;
6549;SDS011;15142;48.888;9.134;2022-07-23T02:50:10;6.23;;;4.90;;
6549;SDS011;15142;48.888;9.134;2022-07-23T02:52:38;8.03;;;5.00;;
6549;SDS011;15142;48.888;9.134;2022-07-23T02:55:07;5.60;;;4.53;;
6549;SDS011;15142;48.888;9.134;2022-07-23T02:57:36;7.70;;;4.70;;
6549;SDS011;15142;48.888;9.134;2022-07-23T03:00:05;6.30;;;4.90;;
6549;SDS011;15142;48.888;9.134;2022-07-23T03:02:34;5.30;;;4.80;;
6549;SDS011;15142;48.888;9.134;2022-07-23T03:05:06;4.47;;;3.83;;
6549;SDS011;15142;48.888;9.134;2022-07-23T03:07:37;6.50;;;4.87;;
6549;SDS011;15142;48.888;9.134;2022-07-23T03:10:06;6.97;;;4.90;;
6549;SDS011;15142;48.888;9.134;2022-07-23T03:12:35;5.00;;;4.50;;
6549;SDS011;15142;48.888;9.134;2022-07-23T03:15:04;4.60;;;4.13;;
6549;SDS011;15142;48.888;9.134;2022-07-23T03:17:33;8.60;;;5.27;;
6549;SDS011;15142;48.888;9.134;2022-07-23T03:20:03;6.97;;;4.50;;
6549;SDS011;15142;48.888;9.134;2022-07-23T03:22:37;5.10;;;4.60;;
6549;SDS011;15142;48.888;9.134;2022-07-23T03:25:06;4.37;;;4.00;;
6549;SDS011;15142;48.888;9.134;2022-07-23T03:27:36;6.10;;;4.50;;
6549;SDS011;15142;48.888;9.134;2022-07-23T03:30:05;7.37;;;4.40;;
6549;SDS011;15142;48.888;9.134;2022-07-23T03:32:35;5.73;;;5.17;;
6549;SDS011;15142;48.888;9.134;2022-07-23T03:35:07;6.83;;;4.93;;
6549;SDS011;15142;48.888;9.134;2022-07-23T03:37:44;4.87;;;4.40;;
6549;SDS011;15142;48.888;9.134;2022-07-23T03:40:12;5.30;;;4.80;;
6549;SDS011;15142;48.888;9.134;2022-07-23T03:42:40;6.77;;;4.73;;
6549;SDS011;15142;48.888;9.134;2022-07-23T03:45:11;5.20;;;4.67;;
6549;SDS011;15142;48.888;9.134;2022-07-23T03:50:23;4.63;;;4.13;;
6549;SDS011;15142;48.888;9.134;2022-07-23T03:52:51;5.20;;;4.53;;
6549;SDS011;15142;48.888;9.134;2022-07-23T03:55:20;5.20;;;4.63;;
6549;SDS011;15142;48.888;9.134;2022-07-23T04:00:14;4.87;;;3.90;;
6549;SDS011;15142;48.888;9.134;2022-07-23T04:02:45;6.80;;;4.63;;
6549;SDS011;15142;48.888;9.134;2022-07-23T04:05:16;4.30;;;3.83;;
6549;SDS011;15142;48.888;9.134;2022-07-23T04:07:51;4.37;;;3.97;;
6549;SDS011;15142;48.888;9.134;2022-07-23T04:10:20;6.50;;;5.30;;
6549;SDS011;15142;48.888;9.134;2022-07-23T04:12:48;5.07;;;4.57;;
6549;SDS011;15142;48.888;9.134;2022-07-23T04:15:17;5.13;;;4.50;;
6549;SDS011;15142;48.888;9.134;2022-07-23T04:17:45;5.67;;;4.50;;
6549;SDS011;15142;48.888;9.134;2022-07-23T04:20:17;4.63;;;4.23;;
6549;SDS011;15142;48.888;9.134;2022-07-23T04:22:56;6.23;;;4.43;;
6549;SDS011;15142;48.888;9.134;2022-07-23T04:25:24;4.30;;;3.90;;
6549;SDS011;15142;48.888;9.134;2022-07-23T04:27:53;5.40;;;4.47;;
6549;SDS011;15142;48.888;9.134;2022-07-23T04:30:22;7.60;;;5.40;;
6549;SDS011;15142;48.888;9.134;2022-07-23T04:32:51;7.20;;;5.50;;
6549;SDS011;15142;48.888;9.134;2022-07-23T04:35:25;5.10;;;4.40;;
6549;SDS011;15142;48.888;9.134;2022-07-23T04:38:04;6.60;;;5.17;;
6549;SDS011;15142;48.888;9.134;2022-07-23T04:40:33;5.20;;;4.73;;
6549;SDS011;15142;48.888;9.134;2022-07-23T04:43:01;4.90;;;4.17;;
6549;SDS011;15142;48.888;9.134;2022-07-23T04:45:32;5.07;;;4.17;;
6549;SDS011;15142;48.888;9.134;2022-07-23T04:48:01;6.33;;;3.93;;
6549;SDS011;15142;48.888;9.134;2022-07-23T04:50:29;6.13;;;4.60;;
6549;SDS011;15142;48.888;9.134;2022-07-23T04:52:58;6.30;;;4.77;;
6549;SDS011;15142;48.888;9.134;2022-07-23T04:58:00;7.00;;;4.30;;
6549;SDS011;15142;48.888;9.134;2022-07-23T05:00:28;7.73;;;4.50;;
6549;SDS011;15142;48.888;9.134;2022-07-23T05:02:57;8.80;;;4.40;;
6549;SDS011;15142;48.888;9.134;2022-07-23T05:05:26;7.23;;;4.30;;
6549;SDS011;15142;48.888;9.134;2022-07-23T05:08:04;7.40;;;4.77;;
6549;SDS011;15142;48.888;9.134;2022-07-23T05:10:35;4.80;;;4.40;;
6549;SDS011;15142;48.888;9.134;2022-07-23T05:13:06;4.50;;;4.10;;
6549;SDS011;15142;48.888;9.134;2022-07-23T05:15:34;6.10;;;4.53;;
6549;SDS011;15142;48.888;9.134;2022-07-23T05:18:03;5.80;;;3.97;;
6549;SDS011;15142;48.888;9.134;2022-07-23T05:20:31;6.03;;;4.67;;
6549;SDS011;15142;48.888;9.134;2022-07-23T05:23:00;5.50;;;4.97;;
6549;SDS011;15142;48.888;9.134;2022-07-23T05:25:29;5.53;;;5.03;;
6549;SDS011;15142;48.888;9.134;2022-07-23T05:27:57;6.77;;;3.77;;
6549;SDS011;15142;48.888;9.134;2022-07-23T05:30:28;5.47;;;4.30;;
6549;SDS011;15142;48.888;9.134;2022-07-23T05:33:00;4.73;;;4.13;;
6549;SDS011;15142;48.888;9.134;2022-07-23T05:35:29;4.77;;;4.30;;
6549;SDS011;15142;48.888;9.134;2022-07-23T05:38:12;4.60;;;4.20;;
6549;SDS011;15142;48.888;9.134;2022-07-23T05:40:41;5.13;;;4.73;;
6549;SDS011;15142;48.888;9.134;2022-07-23T05:43:10;5.10;;;4.60;;
6549;SDS011;15142;48.888;9.134;2022-07-23T05:45:41;6.30;;;4.40;;
6549;SDS011;15142;48.888;9.134;2022-07-23T05:48:09;6.23;;;5.03;;
6549;SDS011;15142;48.888;9.134;2022-07-23T05:50:48;6.57;;;4.97;;
6549;SDS011;15142;48.888;9.134;2022-07-23T05:53:27;5.17;;;4.70;;
6549;SDS011;15142;48.888;9.134;2022-07-23T05:56:00;8.43;;;5.37;;
6549;SDS011;15142;48.888;9.134;2022-07-23T05:58:30;7.30;;;5.50;;
6549;SDS011;15142;48.888;9.134;2022-07-23T06:01:01;7.10;;;5.67;;
6549;SDS011;15142;48.888;9.134;2022-07-23T06:03:38;6.50;;;5.30;;
6549;SDS011;15142;48.888;9.134;2022-07-23T06:06:08;5.37;;;4.87;;
6549;SDS011;15142;48.888;9.134;2022-07-23T06:08:36;6.47;;;5.53;;
6549;SDS011;15142;48.888;9.134;2022-07-23T06:11:07;6.40;;;5.27;;
6549;SDS011;15142;48.888;9.134;2022-07-23T06:13:36;6.77;;;5.33;;
6549;SDS011;15142;48.888;9.134;2022-07-23T06:16:07;5.90;;;5.30;;
6549;SDS011;15142;48.888;9.134;2022-07-23T06:18:35;9.50;;;5.70;;
6549;SDS011;15142;48.888;9.134;2022-07-23T06:21:06;6.57;;;4.87;;
6549;SDS011;15142;48.888;9.134;2022-07-23T06:23:34;5.50;;;4.93;;
6549;SDS011;15142;48.888;9.134;2022-07-23T06:26:03;5.10;;;4.33;;
6549;SDS011;15142;48.888;9.134;2022-07-23T06:28:31;6.17;;;5.27;;
6549;SDS011;15142;48.888;9.134;2022-07-23T06:31:00;6.73;;;5.07;;
6549;SDS011;15142;48.888;9.134;2022-07-23T06:33:31;7.50;;;5.23;;
6549;SDS011;15142;48.888;9.134;2022-07-23T06:35:59;7.70;;;4.73;;
6549;SDS011;15142;48.888;9.134;2022-07-23T06:38:28;14.20;;;5.30;;
6549;SDS011;15142;48.888;9.134;2022-07-23T06:40:56;6.83;;;5.47;;
6549;SDS011;15142;48.888;9.134;2022-07-23T06:43:24;6.90;;;5.53;;
6549;SDS011;15142;48.888;9.134;2022-07-23T06:45:54;6.80;;;5.20;;
6549;SDS011;15142;48.888;9.134;2022-07-23T06:48:23;5.13;;;4.57;;
6549;SDS011;15142;48.888;9.134;2022-07-23T06:50:55;6.40;;;5.07;;
6549;SDS011;15142;48.888;9.134;2022-07-23T06:53:24;6.27;;;5.53;;
6549;SDS011;15142;48.888;9.134;2022-07-23T06:55:52;7.47;;;5.00;;
6549;SDS011;15142;48.888;9.134;2022-07-23T06:58:21;7.60;;;5.90;;
6549;SDS011;15142;48.888;9.134;2022-07-23T07:00:49;8.57;;;5.93;;
6549;SDS011;15142;48.888;9.134;2022-07-23T07:03:19;7.90;;;6.07;;
6549;SDS011;15142;48.888;9.134;2022-07-23T07:05:47;8.80;;;5.40;;
6549;SDS011;15142;48.888;9.134;2022-07-23T07:08:17;7.63;;;5.70;;
6549;SDS011;15142;48.888;9.134;2022-07-23T07:10:45;7.37;;;5.47;;
6549;SDS011;15142;48.888;9.134;2022-07-23T07:13:14;6.87;;;5.97;;
6549;SDS011;15142;48.888;9.134;2022-07-23T07:15:42;9.47;;;6.37;;
6549;SDS011;15142;48.888;9.134;2022-07-23T07:18:11;10.50;;;6.03;;
6549;SDS011;15142;48.888;9.134;2022-07-23T07:20:39;18.70;;;6.50;;
6549;SDS011;15142;48.888;9.134;2022-07-23T07:23:08;9.90;;;7.43;;
6549;SDS011;15142;48.888;9.134;2022-07-23T07:25:39;8.23;;;6.10;;
6549;SDS011;15142;48.888;9.134;2022-07-23T07:28:07;12.23;;;5.70;;
6549;SDS011;15142;48.888;9.134;2022-07-23T07:30:35;10.73;;;5.70;;
6549;SDS011;15142;48.888;9.134;2022-07-23T07:33:04;6.20;;;5.60;;
6549;SDS011;15142;48.888;9.134;2022-07-23T07:35:32;7.70;;;5.73;;
6549;SDS011;15142;48.888;9.134;2022-07-23T07:38:01;5.80;;;4.93;;
6549;SDS011;15142;48.888;9.134;2022-07-23T07:40:29;7.10;;;6.10;;
6549;SDS011;15142;48.888;9.134;2022-07-23T07:43:00;9.67;;;5.30;;
6549;SDS011;15142;48.888;9.134;2022-07-23T07:45:29;7.00;;;6.17;;
6549;SDS011;15142;48.888;9.134;2022-07-23T07:47:58;6.87;;;6.20;;
6549;SDS011;15142;48.888;9.134;2022-07-23T07:50:27;7.60;;;5.93;;
6549;SDS011;15142;48.888;9.134;2022-07-23T07:52:55;9.37;;;7.20;;
6549;SDS011;15142;48.888;9.134;2022-07-23T07:55:24;11.90;;;7.27;;
6549;SDS011;15142;48.888;9.134;2022-07-23T07:57:53;9.37;;;6.87;;
6549;SDS011;15142;48.888;9.134;2022-07-23T08:00:24;11.40;;;6.90;;
6549;SDS011;15142;48.888;9.134;2022-07-23T08:02:53;9.30;;;6.67;;
6549;SDS011;15142;48.888;9.134;2022-07-23T08:05:23;12.00;;;6.90;;
6549;SDS011;15142;48.888;9.134;2022-07-23T08:07:52;11.20;;;8.23;;
6549;SDS011;15142;48.888;9.134;2022-07-23T08:10:20;8.40;;;7.50;;
6549;SDS011;15142;48.888;9.134;2022-07-23T08:12:49;8.07;;;6.83;;
6549;SDS011;15142;48.888;9.134;2022-07-23T08:15:19;9.83;;;8.23;;
6549;SDS011;15142;48.888;9.134;2022-07-23T08:20:17;9.10;;;6.53;;
6549;SDS011;15142;48.888;9.134;2022-07-23T08:22:49;9.37;;;7.23;;
6549;SDS011;15142;48.888;9.134;2022-07-23T08:25:14;8.53;;;6.90;;
6549;SDS011;15142;48.888;9.134;2022-07-23T08:27:43;8.53;;;6.73;;
6549;SDS011;15142;48.888;9.134;2022-07-23T08:30:12;9.87;;;7.00;;
6549;SDS011;15142;48.888;9.134;2022-07-23T08:35:20;7.23;;;5.30;;
6549;SDS011;15142;48.888;9.134;2022-07-23T08:42:50;5.70;;;4.73;;
6549;SDS011;15142;48.888;9.134;2022-07-23T08:45:19;7.23;;;4.57;;
6549;SDS011;15142;48.888;9.134;2022-07-23T08:55:18;5.20;;;4.27;;
6549;SDS011;15142;48.888;9.134;2022-07-23T09:02:45;8.50;;;4.90;;
6549;SDS011;15142;48.888;9.134;2022-07-23T09:05:24;6.10;;;5.33;;
6549;SDS011;15142;48.888;9.134;2022-07-23T09:10:23;9.67;;;5.37;;
6549;SDS011;15142;48.888;9.134;2022-07-23T09:20:21;6.33;;;4.40;;
6549;SDS011;15142;48.888;9.134;2022-07-23T09:30:24;8.53;;;5.03;;
6549;SDS011;15142;48.888;9.134;2022-07-23T09:33:03;4.67;;;4.30;;
6549;SDS011;15142;48.888;9.134;2022-07-23T09:35:46;5.50;;;4.20;;
6549;SDS011;15142;48.888;9.134;2022-07-23T09:38:15;6.77;;;5.00;;
6549;SDS011;15142;48.888;9.134;2022-07-23T09:48:24;6.90;;;4.60;;
6549;SDS011;15142;48.888;9.134;2022-07-23T09:50:52;7.27;;;5.80;;
6549;SDS011;15142;48.888;9.134;2022-07-23T09:53:30;7.43;;;4.80;;
6549;SDS011;15142;48.888;9.134;2022-07-23T09:55:58;12.93;;;5.30;;
6549;SDS011;15142;48.888;9.134;2022-07-23T09:58:28;8.47;;;5.67;;
6549;SDS011;15142;48.888;9.134;2022-07-23T10:00:58;5.33;;;4.83;;
6549;SDS011;15142;48.888;9.134;2022-07-23T10:03:29;5.00;;;4.60;;
6549;SDS011;15142;48.888;9.134;2022-07-23T10:06:13;6.80;;;5.07;;
6549;SDS011;15142;48.888;9.134;2022-07-23T10:09:00;6.37;;;4.80;;
6549;SDS011;15142;48.888;9.134;2022-07-23T10:11:49;5.90;;;4.83;;
6549;SDS011;15142;48.888;9.134;2022-07-23T10:14:37;6.40;;;5.80;;
6549;SDS011;15142;48.888;9.134;2022-07-23T10:17:08;8.23;;;5.77;;
6549;SDS011;15142;48.888;9.134;2022-07-23T10:22:18;5.17;;;4.67;;
6549;SDS011;15142;48.888;9.134;2022-07-23T10:27:25;7.10;;;5.50;;
6549;SDS011;15142;48.888;9.134;2022-07-23T10:30:15;6.73;;;5.90;;
6549;SDS011;15142;48.888;9.134;2022-07-23T10:40:20;7.90;;;4.90;;
6549;SDS011;15142;48.888;9.134;2022-07-23T10:42:50;5.87;;;4.60;;
6549;SDS011;15142;48.888;9.134;2022-07-23T10:45:25;8.07;;;4.87;;
6549;SDS011;15142;48.888;9.134;2022-07-23T10:50:24;4.40;;;3.83;;
6549;SDS011;15142;48.888;9.134;2022-07-23T10:53:08;6.63;;;4.30;;
6549;SDS011;15142;48.888;9.134;2022-07-23T10:58:21;5.47;;;4.80;;
6549;SDS011;15142;48.888;9.134;2022-07-23T11:00:51;5.23;;;4.70;;
6549;SDS011;15142;48.888;9.134;2022-07-23T11:03:31;4.93;;;4.43;;
6549;SDS011;15142;48.888;9.134;2022-07-23T11:06:03;7.57;;;4.73;;
6549;SDS011;15142;48.888;9.134;2022-07-23T11:08:32;4.00;;;3.70;;
6549;SDS011;15142;48.888;9.134;2022-07-23T11:11:07;4.80;;;4.03;;
6549;SDS011;15142;48.888;9.134;2022-07-23T11:13:42;4.90;;;4.47;;
6549;SDS011;15142;48.888;9.134;2022-07-23T11:16:19;6.70;;;3.77;;
6549;SDS011;15142;48.888;9.134;2022-07-23T11:24:10;7.13;;;4.43;;
6549;SDS011;15142;48.888;9.134;2022-07-23T11:32:24;5.80;;;4.17;;
6549;SDS011;15142;48.888;9.134;2022-07-23T11:34:58;5.10;;;4.30;;
6549;SDS011;15142;48.888;9.134;2022-07-23T11:37:28;12.50;;;4.63;;
6549;SDS011;15142;48.888;9.134;2022-07-23T11:40:04;5.00;;;4.60;;
6549;SDS011;15142;48.888;9.134;2022-07-23T11:42:38;4.60;;;4.20;;
6549;SDS011;15142;48.888;9.134;2022-07-23T11:45:09;5.73;;;5.13;;
6549;SDS011;15142;48.888;9.134;2022-07-23T11:55:21;5.10;;;4.60;;
6549;SDS011;15142;48.888;9.134;2022-07-23T12:00:26;4.77;;;4.37;;
6549;SDS011;15142;48.888;9.134;2022-07-23T12:05:26;5.80;;;4.00;;
6549;SDS011;15142;48.888;9.134;2022-07-23T12:07:56;9.30;;;4.63;;
6549;SDS011;15142;48.888;9.134;2022-07-23T12:10:25;6.93;;;5.87;;
6549;SDS011;15142;48.888;9.134;2022-07-23T12:15:22;5.67;;;4.10;;
6549;SDS011;15142;48.888;9.134;2022-07-23T12:17:57;5.23;;;4.57;;
6549;SDS011;15142;48.888;9.134;2022-07-23T12:20:27;6.00;;;4.57;;
6549;SDS011;15142;48.888;9.134;2022-07-23T12:22:57;6.03;;;4.47;;
6549;SDS011;15142;48.888;9.134;2022-07-23T12:25:27;4.90;;;4.30;;
6549;SDS011;15142;48.888;9.134;2022-07-23T12:28:01;4.53;;;4.20;;
6549;SDS011;15142;48.888;9.134;2022-07-23T12:30:37;4.77;;;4.33;;
6549;SDS011;15142;48.888;9.134;2022-07-23T12:38:24;7.83;;;4.73;;
6549;SDS011;15142;48.888;9.134;2022-07-23T12:43:22;5.80;;;5.20;;
6549;SDS011;15142;48.888;9.134;2022-07-23T12:48:24;5.80;;;5.20;;
6549;SDS011;15142;48.888;9.134;2022-07-23T12:50:57;5.30;;;4.80;;
6549;SDS011;15142;48.888;9.134;2022-07-23T12:53:28;4.90;;;4.50;;
6549;SDS011;15142;48.888;9.134;2022-07-23T12:58:26;4.83;;;4.47;;
6549;SDS011;15142;48.888;9.134;2022-07-23T13:00:55;11.43;;;4.43;;
6549;SDS011;15142;48.888;9.134;2022-07-23T13:03:32;9.63;;;4.90;;
6549;SDS011;15142;48.888;9.134;2022-07-23T13:08:35;11.27;;;5.90;;
6549;SDS011;15142;48.888;9.134;2022-07-23T13:11:05;6.90;;;6.13;;
6549;SDS011;15142;48.888;9.134;2022-07-23T13:31:23;6.23;;;5.63;;
6549;SDS011;15142;48.888;9.134;2022-07-23T13:33:52;5.60;;;5.10;;
6549;SDS011;15142;48.888;9.134;2022-07-23T13:36:21;6.07;;;5.47;;
6549;SDS011;15142;48.888;9.134;2022-07-23T13:38:49;8.13;;;5.80;;
6549;SDS011;15142;48.888;9.134;2022-07-23T13:41:17;6.33;;;5.70;;
6549;SDS011;15142;48.888;9.134;2022-07-23T13:43:46;7.43;;;5.57;;
6549;SDS011;15142;48.888;9.134;2022-07-23T13:46:15;5.40;;;4.87;;
6549;SDS011;15142;48.888;9.134;2022-07-23T13:48:47;6.00;;;5.30;;
6549;SDS011;15142;48.888;9.134;2022-07-23T13:51:16;7.37;;;5.20;;
6549;SDS011;15142;48.888;9.134;2022-07-23T13:56:22;5.60;;;5.13;;
6549;SDS011;15142;48.888;9.134;2022-07-23T13:58:51;5.10;;;4.60;;
6549;SDS011;15142;48.888;9.134;2022-07-23T14:01:21;5.00;;;4.50;;
6549;SDS011;15142;48.888;9.134;2022-07-23T14:08:52;5.57;;;5.00;;
6549;SDS011;15142;48.888;9.134;2022-07-23T14:11:21;6.53;;;4.77;;
6549;SDS011;15142;48.888;9.134;2022-07-23T14:16:21;5.57;;;5.07;;
6549;SDS011;15142;48.888;9.134;2022-07-23T14:31:24;5.50;;;5.00;;
6549;SDS011;15142;48.888;9.134;2022-07-23T14:33:53;4.70;;;4.30;;
6549;SDS011;15142;48.888;9.134;2022-07-23T14:36:23;5.10;;;4.60;;
6549;SDS011;15142;48.888;9.134;2022-07-23T14:38:52;5.97;;;5.47;;
6549;SDS011;15142;48.888;9.134;2022-07-23T14:43:53;7.37;;;5.70;;
6549;SDS011;15142;48.888;9.134;2022-07-23T14:51:23;7.80;;;5.07;;
6549;SDS011;15142;48.888;9.134;2022-07-23T14:53:52;5.30;;;4.80;;
6549;SDS011;15142;48.888;9.134;2022-07-23T14:58:53;7.27;;;5.80;;
6549;SDS011;15142;48.888;9.134;2022-07-23T15:03:52;5.87;;;5.07;;
6549;SDS011;15142;48.888;9.134;2022-07-23T15:11:26;6.83;;;5.20;;
6549;SDS011;15142;48.888;9.134;2022-07-23T15:16:30;5.13;;;4.73;;
6549;SDS011;15142;48.888;9.134;2022-07-23T15:21:30;6.63;;;5.43;;
6549;SDS011;15142;48.888;9.134;2022-07-23T15:24:01;5.27;;;4.87;;
6549;SDS011;15142;48.888;9.134;2022-07-23T15:26:29;5.50;;;5.00;;
6549;SDS011;15142;48.888;9.134;2022-07-23T15:31:27;5.90;;;5.40;;
6549;SDS011;15142;48.888;9.134;2022-07-23T15:33:55;5.90;;;4.93;;
6549;SDS011;15142;48.888;9.134;2022-07-23T15:36:24;6.63;;;5.10;;
6549;SDS011;15142;48.888;9.134;2022-07-23T15:38:52;6.13;;;5.53;;
6549;SDS011;15142;48.888;9.134;2022-07-23T15:41:23;6.30;;;5.00;;
6549;SDS011;15142;48.888;9.134;2022-07-23T15:43:52;5.37;;;4.90;;
6549;SDS011;15142;48.888;9.134;2022-07-23T15:46:21;5.93;;;5.00;;
6549;SDS011;15142;48.888;9.134;2022-07-23T15:48:50;6.17;;;5.67;;
6549;SDS011;15142;48.888;9.134;2022-07-23T15:51:19;8.60;;;6.10;;
6549;SDS011;15142;48.888;9.134;2022-07-23T15:53:47;10.03;;;5.40;;
6549;SDS011;15142;48.888;9.134;2022-07-23T15:56:15;5.67;;;5.03;;
6549;SDS011;15142;48.888;9.134;2022-07-23T15:58:46;7.10;;;5.30;;
6549;SDS011;15142;48.888;9.134;2022-07-23T16:01:15;6.47;;;5.80;;
6549;SDS011;15142;48.888;9.134;2022-07-23T16:03:43;6.43;;;5.33;;
6549;SDS011;15142;48.888;9.134;2022-07-23T16:08:51;6.93;;;5.27;;
6549;SDS011;15142;48.888;9.134;2022-07-23T16:11:19;10.37;;;6.30;;
6549;SDS011;15142;48.888;9.134;2022-07-23T16:16:21;7.07;;;5.10;;
6549;SDS011;15142;48.888;9.134;2022-07-23T16:18:51;6.60;;;5.87;;
6549;SDS011;15142;48.888;9.134;2022-07-23T16:23:53;6.70;;;6.10;;
6549;SDS011;15142;48.888;9.134;2022-07-23T16:31:27;9.77;;;6.50;;
6549;SDS011;15142;48.888;9.134;2022-07-23T16:33:57;7.67;;;6.77;;
6549;SDS011;15142;48.888;9.134;2022-07-23T16:36:25;8.00;;;6.10;;
6549;SDS011;15142;48.888;9.134;2022-07-23T16:41:21;7.40;;;6.50;;
6549;SDS011;15142;48.888;9.134;2022-07-23T16:51:28;7.10;;;6.40;;
6549;SDS011;15142;48.888;9.134;2022-07-23T17:04:21;7.43;;;6.67;;
6549;SDS011;15142;48.888;9.134;2022-07-23T17:09:23;6.60;;;6.00;;
6549;SDS011;15142;48.888;9.134;2022-07-23T17:11:52;9.60;;;6.83;;
6549;SDS011;15142;48.888;9.134;2022-07-23T17:16:52;9.20;;;7.57;;
6549;SDS011;15142;48.888;9.134;2022-07-23T17:40:05;7.70;;;6.17;;
6549;SDS011;15142;48.888;9.134;2022-07-23T17:42:35;9.70;;;7.00;;
6549;SDS011;15142;48.888;9.134;2022-07-23T17:47:36;8.40;;;6.90;;
6549;SDS011;15142;48.888;9.134;2022-07-23T17:52:42;9.80;;;7.50;;
6549;SDS011;15142;48.888;9.134;2022-07-23T17:55:14;6.93;;;6.33;;
6549;SDS011;15142;48.888;9.134;2022-07-23T17:57:43;7.57;;;6.80;;
6549;SDS011;15142;48.888;9.134;2022-07-23T18:00:13;8.20;;;7.30;;
6549;SDS011;15142;48.888;9.134;2022-07-23T18:02:43;8.90;;;6.60;;
6549;SDS011;15142;48.888;9.134;2022-07-23T18:08:00;8.20;;;6.80;;
6549;SDS011;15142;48.888;9.134;2022-07-23T18:10:32;8.00;;;6.73;;
6549;SDS011;15142;48.888;9.134;2022-07-23T18:13:02;13.00;;;6.90;;
6549;SDS011;15142;48.888;9.134;2022-07-23T18:15:31;9.27;;;6.93;;
6549;SDS011;15142;48.888;9.134;2022-07-23T18:18:00;9.77;;;7.70;;
6549;SDS011;15142;48.888;9.134;2022-07-23T18:20:28;12.03;;;6.93;;
6549;SDS011;15142;48.888;9.134;2022-07-23T18:22:57;9.23;;;6.50;;
6549;SDS011;15142;48.888;9.134;2022-07-23T18:25:25;12.87;;;6.50;;
6549;SDS011;15142;48.888;9.134;2022-07-23T18:27:56;7.37;;;6.60;;
6549;SDS011;15142;48.888;9.134;2022-07-23T18:30:24;8.77;;;6.97;;
6549;SDS011;15142;48.888;9.134;2022-07-23T18:32:53;7.90;;;6.57;;
6549;SDS011;15142;48.888;9.134;2022-07-23T18:35:21;8.80;;;7.77;;
6549;SDS011;15142;48.888;9.134;2022-07-23T18:37:50;9.90;;;7.27;;
6549;SDS011;15142;48.888;9.134;2022-07-23T18:40:19;10.97;;;7.33;;
6549;SDS011;15142;48.888;9.134;2022-07-23T18:42:47;18.63;;;6.33;;
6549;SDS011;15142;48.888;9.134;2022-07-23T18:45:18;9.57;;;6.67;;
6549;SDS011;15142;48.888;9.134;2022-07-23T18:47:47;10.47;;;7.40;;
6549;SDS011;15142;48.888;9.134;2022-07-23T18:50:16;9.40;;;7.50;;
6549;SDS011;15142;48.888;9.134;2022-07-23T18:52:44;9.07;;;6.43;;
6549;SDS011;15142;48.888;9.134;2022-07-23T18:55:13;8.90;;;7.03;;
6549;SDS011;15142;48.888;9.134;2022-07-23T18:57:42;7.97;;;6.60;;
6549;SDS011;15142;48.888;9.134;2022-07-23T19:00:10;8.50;;;7.10;;
6549;SDS011;15142;48.888;9.134;2022-07-23T19:02:42;9.73;;;8.73;;
6549;SDS011;15142;48.888;9.134;2022-07-23T19:07:47;7.93;;;7.13;;
6549;SDS011;15142;48.888;9.134;2022-07-23T19:10:17;8.50;;;6.80;;
6549;SDS011;15142;48.888;9.134;2022-07-23T19:12:46;7.30;;;6.60;;
6549;SDS011;15142;48.888;9.134;2022-07-23T19:15:16;7.40;;;6.70;;
6549;SDS011;15142;48.888;9.134;2022-07-23T19:17:47;7.07;;;6.47;;
6549;SDS011;15142;48.888;9.134;2022-07-23T19:20:17;8.23;;;7.03;;
6549;SDS011;15142;48.888;9.134;2022-07-23T19:22:45;8.10;;;6.60;;
6549;SDS011;15142;48.888;9.134;2022-07-23T19:27:46;7.70;;;6.47;;
6549;SDS011;15142;48.888;9.134;2022-07-23T19:30:16;11.80;;;7.00;;
6549;SDS011;15142;48.888;9.134;2022-07-23T19:32:47;9.83;;;7.63;;
6549;SDS011;15142;48.888;9.134;2022-07-23T19:35:16;11.53;;;8.33;;
6549;SDS011;15142;48.888;9.134;2022-07-23T19:37:45;12.70;;;8.80;;
6549;SDS011;15142;48.888;9.134;2022-07-23T19:45:24;9.97;;;7.27;;
6549;SDS011;15142;48.888;9.134;2022-07-23T19:50:25;8.30;;;7.40;;
6549;SDS011;15142;48.888;9.134;2022-07-23T19:52:53;7.63;;;6.83;;
6549;SDS011;15142;48.888;9.134;2022-07-23T19:55:23;11.43;;;7.77;;
6549;SDS011;15142;48.888;9.134;2022-07-23T19:57:51;11.10;;;7.43;;
6549;SDS011;15142;48.888;9.134;2022-07-23T20:00:20;12.93;;;7.43;;
6549;SDS011;15142;48.888;9.134;2022-07-23T20:02:49;11.00;;;7.33;;
6549;SDS011;15142;48.888;9.134;2022-07-23T20:05:16;8.73;;;6.53;;
6549;SDS011;15142;48.888;9.134;2022-07-23T20:07:47;17.50;;;7.60;;
6549;SDS011;15142;48.888;9.134;2022-07-23T20:10:16;9.97;;;8.20;;
6549;SDS011;15142;48.888;9.134;2022-07-23T20:15:24;7.83;;;6.60;;
6549;SDS011;15142;48.888;9.134;2022-07-23T20:20:21;8.03;;;7.23;;